Time;durP1;ratioP1;P1;durP2;ratioP2;P2;SDS_P1;SDS_P2;PMS_P1;PMS_P2;Temp;Humidity;BMP_temperature;BMP_pressure;BME280_temperature;BME280_humidity;BME280_pressure;Samples;Min_cycle;Max_cycle;Signal;HPM_P1;HPM_P2
2023/06/08 00:00:17;;;;;;;;;;;;;;;14.57;43.19;101482.69;7352209;19;19919;-59
2023/06/08 00:02:42;;;;;;;;;;;;;;;14.52;43.27;101485.44;7356308;19;19915;-58
2023/06/08 00:05:12;;;;;;;;;;;;;;;14.51;43.26;101483.72;7357563;19;19918;-59
2023/06/08 00:07:40;;;;;;;;;;;;;;;14.46;43.53;101486.44;7358107;19;19927;-58
2023/06/08 00:10:07;;;;;;;;;;;;;;;14.44;43.85;101479.47;7356443;19;19930;-59
2023/06/08 00:12:33;;;;;;;;;;;;;;;14.42;43.40;101479.53;7357772;19;20006;-59
2023/06/08 00:14:58;;;;;;;;;;;;;;;14.39;43.50;101473.47;7356488;19;19982;-59
2023/06/08 00:17:23;;;;;;;;;;;;;;;14.37;43.51;101472.66;7358347;19;19919;-59
2023/06/08 00:19:49;;;;;;;;;;;;;;;14.34;43.88;101470.97;7356122;19;19934;-58
2023/06/08 00:22:14;;;;;;;;;;;;;;;14.33;43.92;101471.88;7360150;19;19939;-58
2023/06/08 00:24:40;;;;;;;;;;;;;;;14.31;43.78;101472.84;7356577;19;19923;-59
2023/06/08 00:27:05;;;;;;;;;;;;;;;14.28;43.61;101464.13;7355395;19;19944;-58
2023/06/08 00:29:31;;;;;;;;;;;;;;;14.27;44.05;101464.16;7354135;19;20425;-58
2023/06/08 00:31:56;;;;;;;;;;;;;;;14.25;43.93;101471.22;7358694;19;19919;-59
2023/06/08 00:34:21;;;;;;;;;;;;;;;14.24;43.72;101472.09;7357680;19;19927;-58
2023/06/08 00:36:47;;;;;;;;;;;;;;;14.23;44.24;101473.03;7350432;19;19918;-59
2023/06/08 00:39:12;;;;;;;;;;;;;;;14.21;43.91;101470.44;7360518;19;19938;-59
2023/06/08 00:41:38;;;;;;;;;;;;;;;14.21;44.29;101474.84;7356106;19;19978;-59
2023/06/08 00:44:07;;;;;;;;;;;;;;;14.19;44.36;101466.09;7357881;19;19923;-59
2023/06/08 00:46:33;;;;;;;;;;;;;;;14.18;44.23;101465.25;7356232;19;20622;-58
2023/06/08 00:48:58;;;;;;;;;;;;;;;14.17;44.31;101471.41;7359165;19;19996;-59
2023/06/08 00:51:29;;;;;;;;;;;;;;;14.16;44.24;101467.06;7357916;19;19932;-59
2023/06/08 00:53:56;;;;;;;;;;;;;;;14.14;43.98;101463.63;7356249;19;19919;-59
2023/06/08 00:56:26;;;;;;;;;;;;;;;14.14;44.41;101466.25;7357278;19;20613;-57
2023/06/08 00:58:52;;;;;;;;;;;;;;;14.13;44.46;101458.41;7355643;19;19975;-59
2023/06/08 01:01:18;;;;;;;;;;;;;;;14.13;44.41;101463.66;7354095;19;20672;-58
2023/06/08 01:03:46;;;;;;;;;;;;;;;14.12;44.31;101454.91;7355449;19;19933;-59
2023/06/08 01:06:13;;;;;;;;;;;;;;;14.12;44.72;101461.94;7352301;19;19930;-59
2023/06/08 01:08:42;;;;;;;;;;;;;;;14.11;44.69;101468.09;7359055;19;19931;-59
2023/06/08 01:11:13;;;;;;;;;;;;;;;14.11;44.65;101462.84;7357478;19;19926;-59
2023/06/08 01:13:45;;;;;;;;;;;;;;;14.10;44.35;101461.97;7358120;19;19922;-59
2023/06/08 01:16:12;;;;;;;;;;;;;;;14.09;44.52;101460.25;7355863;19;19918;-59
2023/06/08 01:18:38;;;;;;;;;;;;;;;14.08;44.85;101458.50;7354922;19;19922;-59
2023/06/08 01:21:24;;;;;;;;;;;;;;;14.06;44.74;101465.56;7356825;19;20605;-59
2023/06/08 01:23:54;;;;;;;;;;;;;;;14.06;44.52;101462.94;7356370;19;19960;-59
2023/06/08 01:26:20;;;;;;;;;;;;;;;13.70;44.96;101394.69;7352424;19;20021;-59
2023/06/08 01:28:49;;;;;;;;;;;;;;;14.05;44.88;101463.84;7354190;19;20010;-58
2023/06/08 01:31:14;;;;;;;;;;;;;;;14.05;44.60;101463.84;7353684;19;19926;-59
2023/06/08 01:33:39;;;;;;;;;;;;;;;14.04;44.71;101456.88;7357601;19;19914;-58
2023/06/08 01:36:25;;;;;;;;;;;;;;;14.05;44.50;101457.75;7352434;19;19923;-60
2023/06/08 01:39:09;;;;;;;;;;;;;;;14.03;44.80;101460.38;7352123;19;19975;-59
2023/06/08 01:41:43;;;;;;;;;;;;;;;14.02;44.56;101448.16;7358069;19;19919;-60
2023/06/08 01:44:11;;;;;;;;;;;;;;;14.02;45.05;101453.41;7356055;19;20415;-59
2023/06/08 01:46:36;;;;;;;;;;;;;;;14.01;44.75;101454.31;7354213;19;19930;-60
2023/06/08 01:49:03;;;;;;;;;;;;;;;14.01;45.05;101462.19;7358983;19;19918;-59
2023/06/08 01:51:28;;;;;;;;;;;;;;;14.01;44.63;101460.44;7353058;19;20542;-60
2023/06/08 01:54:04;;;;;;;;;;;;;;;14.01;45.10;101451.69;7356767;19;19919;-60
2023/06/08 01:56:33;;;;;;;;;;;;;;;13.64;44.88;101401.88;7353056;19;19923;-59
2023/06/08 01:58:58;;;;;;;;;;;;;;;14.00;44.64;101456.09;7352194;19;19960;-60
2023/06/08 02:01:24;;;;;;;;;;;;;;;14.00;44.42;101450.84;7352681;19;21254;-60
2023/06/08 02:03:49;;;;;;;;;;;;;;;14.00;44.94;101457.84;7354156;19;19922;-59
2023/06/08 02:06:15;;;;;;;;;;;;;;;14.00;44.84;101458.72;7350013;19;20237;-60
2023/06/08 02:08:41;;;;;;;;;;;;;;;14.00;44.82;101455.22;7355581;19;19922;-59
2023/06/08 02:11:07;;;;;;;;;;;;;;;14.00;45.07;101458.72;7357207;19;19930;-59
2023/06/08 02:13:34;;;;;;;;;;;;;;;14.00;45.20;101465.72;7353266;19;19919;-59
2023/06/08 02:16:00;;;;;;;;;;;;;;;14.00;44.71;101463.09;7354187;19;19974;-59
2023/06/08 02:18:25;;;;;;;;;;;;;;;14.00;44.79;101463.97;7352919;19;19994;-60
2023/06/08 02:20:50;;;;;;;;;;;;;;;14.01;45.19;101467.44;7351648;19;20660;-61
2023/06/08 02:23:15;;;;;;;;;;;;;;;14.00;45.06;101466.59;7354425;19;19942;-60
2023/06/08 02:25:41;;;;;;;;;;;;;;;14.00;44.93;101465.72;7353332;19;19950;-59
2023/06/08 02:28:06;;;;;;;;;;;;;;;14.00;45.05;101463.09;7353253;19;19915;-58
2023/06/08 02:30:31;;;;;;;;;;;;;;;13.99;45.16;101456.13;7353381;19;20375;-60
2023/06/08 02:32:56;;;;;;;;;;;;;;;13.98;45.17;101457.88;7355886;19;19939;-59
2023/06/08 02:35:22;;;;;;;;;;;;;;;13.99;45.22;101456.13;7352275;19;19911;-59
2023/06/08 02:37:47;;;;;;;;;;;;;;;13.99;45.38;101453.50;7354858;19;19957;-59
2023/06/08 02:40:12;;;;;;;;;;;;;;;13.63;45.61;101395.72;7353022;19;19930;-60
2023/06/08 02:42:38;;;;;;;;;;;;;;;13.98;45.93;101450.00;7355078;19;19930;-60
2023/06/08 02:45:03;;;;;;;;;;;;;;;13.98;45.52;101459.63;7352825;19;19961;-60
2023/06/08 02:47:28;;;;;;;;;;;;;;;13.98;45.90;101454.38;7353667;19;19939;-60
2023/06/08 02:49:54;;;;;;;;;;;;;;;13.97;45.78;101450.91;7351633;19;19930;-60
2023/06/08 02:52:20;;;;;;;;;;;;;;;13.96;46.14;101445.69;7352469;19;20401;-60
2023/06/08 02:54:46;;;;;;;;;;;;;;;13.96;45.90;101446.56;7341755;19;19925;-59
2023/06/08 02:57:11;;;;;;;;;;;;;;;13.96;45.92;101443.06;7349555;19;19923;-60
2023/06/08 02:59:36;;;;;;;;;;;;;;;13.95;46.17;101441.34;7353333;19;19914;-60
2023/06/08 03:02:01;;;;;;;;;;;;;;;13.95;46.28;101438.72;7349560;19;21059;-59
2023/06/08 03:04:27;;;;;;;;;;;;;;;13.95;46.59;101441.34;7329004;19;19935;-60
2023/06/08 03:06:53;;;;;;;;;;;;;;;13.84;45.84;101423.25;7351920;19;19915;-60
2023/06/08 03:09:22;;;;;;;;;;;;;;;13.91;46.85;101440.56;7352224;19;19921;-60
2023/06/08 03:11:47;;;;;;;;;;;;;;;13.91;46.57;101437.94;7353369;19;19915;-60
2023/06/08 03:14:13;;;;;;;;;;;;;;;13.91;46.72;101450.19;7353089;19;19917;-59
2023/06/08 03:16:38;;;;;;;;;;;;;;;13.89;46.43;101442.38;7355840;19;20009;-60
2023/06/08 03:19:03;;;;;;;;;;;;;;;13.88;46.96;101445.88;7359319;19;19915;-59
2023/06/08 03:21:29;;;;;;;;;;;;;;;13.87;46.88;101443.28;7358671;19;20399;-60
2023/06/08 03:23:55;;;;;;;;;;;;;;;13.86;46.79;101442.44;7359754;19;20389;-59
2023/06/08 03:26:20;;;;;;;;;;;;;;;13.85;47.07;101438.09;7356520;19;19923;-59
2023/06/08 03:28:45;;;;;;;;;;;;;;;13.84;46.77;101439.00;7360305;19;20319;-60
2023/06/08 03:31:11;;;;;;;;;;;;;;;13.83;46.49;101439.88;7359590;19;20006;-60
2023/06/08 03:33:36;;;;;;;;;;;;;;;13.81;46.96;101435.56;7353477;19;20034;-60
2023/06/08 03:36:01;;;;;;;;;;;;;;;13.79;47.38;101437.34;7357474;19;19926;-59
2023/06/08 03:38:27;;;;;;;;;;;;;;;13.79;47.48;101439.97;7360554;19;19919;-60
2023/06/08 03:40:52;;;;;;;;;;;;;;;13.77;47.49;101438.25;7357178;19;20611;-59
2023/06/08 03:43:17;;;;;;;;;;;;;;;13.76;47.29;101436.53;7352564;19;19951;-60
2023/06/08 03:45:42;;;;;;;;;;;;;;;13.74;46.96;101435.72;7357745;19;20360;-60
2023/06/08 03:48:08;;;;;;;;;;;;;;;13.72;47.13;101434.88;7359200;19;20243;-60
2023/06/08 03:50:33;;;;;;;;;;;;;;;13.70;47.62;101431.44;7359899;19;19918;-59
2023/06/08 03:52:58;;;;;;;;;;;;;;;13.69;47.69;101434.13;7360085;19;19915;-60
2023/06/08 03:55:26;;;;;;;;;;;;;;;13.67;47.17;101436.75;7358481;19;19938;-59
2023/06/08 03:57:52;;;;;;;;;;;;;;;13.66;47.40;101435.03;7360064;19;20393;-60
2023/06/08 04:00:17;;;;;;;;;;;;;;;13.65;47.26;101438.56;7353137;19;19939;-60
2023/06/08 04:02:42;;;;;;;;;;;;;;;13.64;47.36;101426.34;7359257;19;19915;-59
2023/06/08 04:05:08;;;;;;;;;;;;;;;13.62;47.46;101428.13;7358613;19;19915;-60
2023/06/08 04:07:34;;;;;;;;;;;;;;;13.62;47.49;101427.25;7357124;19;19926;-59
2023/06/08 04:10:03;;;;;;;;;;;;;;;13.60;47.54;101429.94;7356723;19;19918;-60
2023/06/08 04:12:29;;;;;;;;;;;;;;;13.60;47.69;101429.94;7358806;19;20942;-60
2023/06/08 04:14:54;;;;;;;;;;;;;;;13.59;47.79;101428.22;7356027;19;19982;-60
2023/06/08 04:17:20;;;;;;;;;;;;;;;13.59;47.18;101429.97;7356368;19;19911;-60
2023/06/08 04:19:45;;;;;;;;;;;;;;;13.57;47.54;101424.75;7358121;19;19926;-60
2023/06/08 04:22:10;;;;;;;;;;;;;;;13.57;48.19;101424.75;7354878;19;19922;-60
2023/06/08 04:24:38;;;;;;;;;;;;;;;13.45;47.97;101410.16;7352476;19;20702;-59
2023/06/08 04:27:05;;;;;;;;;;;;;;;13.57;47.71;101421.25;7358748;19;19929;-59
2023/06/08 04:29:31;;;;;;;;;;;;;;;13.56;47.58;101427.41;7355811;19;20383;-59
2023/06/08 04:31:56;;;;;;;;;;;;;;;13.57;48.02;101423.88;7353385;19;19915;-60
2023/06/08 04:34:21;;;;;;;;;;;;;;;13.57;48.37;101421.25;7350853;19;19930;-56
2023/06/08 04:36:46;;;;;;;;;;;;;;;13.57;47.50;101426.50;7355938;19;19919;-59
2023/06/08 04:39:12;;;;;;;;;;;;;;;13.57;48.17;101419.50;7353661;19;20085;-60
2023/06/08 04:41:37;;;;;;;;;;;;;;;13.58;48.46;101425.59;7357353;19;19922;-60
2023/06/08 04:44:03;;;;;;;;;;;;;;;13.58;48.47;101426.47;7357107;19;20371;-60
2023/06/08 04:46:30;;;;;;;;;;;;;;;13.60;48.42;101429.94;7355832;19;20328;-60
2023/06/08 04:48:55;;;;;;;;;;;;;;;13.61;48.57;101426.41;7357397;19;20017;-58
2023/06/08 04:51:23;;;;;;;;;;;;;;;13.62;48.48;101432.50;7352494;19;19914;-60
2023/06/08 04:53:48;;;;;;;;;;;;;;;13.64;48.38;101423.72;7359324;19;20611;-60
2023/06/08 04:56:18;;;;;;;;;;;;;;;13.48;48.55;101398.72;7355146;19;19918;-60
2023/06/08 04:58:44;;;;;;;;;;;;;;;13.68;48.13;101421.84;7357223;19;19930;-60
2023/06/08 05:01:09;;;;;;;;;;;;;;;13.70;47.97;101431.44;7356263;19;20290;-60
2023/06/08 05:03:34;;;;;;;;;;;;;;;13.71;48.37;101425.28;7358678;19;19978;-59
2023/06/08 05:06:00;;;;;;;;;;;;;;;13.75;47.89;101428.72;7358556;19;20744;-59
2023/06/08 05:08:25;;;;;;;;;;;;;;;13.76;48.25;101433.06;7353500;19;19919;-59
2023/06/08 05:10:50;;;;;;;;;;;;;;;13.79;49.04;101435.63;7357547;19;20030;-60
2023/06/08 05:13:16;;;;;;;;;;;;;;;13.81;48.96;101427.69;7353894;19;19923;-59
2023/06/08 05:15:41;;;;;;;;;;;;;;;13.83;49.35;101436.38;7355582;19;19922;-60
2023/06/08 05:18:06;;;;;;;;;;;;;;;13.85;49.03;101431.97;7356028;19;19915;-60
2023/06/08 05:20:31;;;;;;;;;;;;;;;13.89;48.94;101429.25;7354706;19;19950;-59
2023/06/08 05:22:58;;;;;;;;;;;;;;;13.92;48.09;101425.66;7349753;19;19923;-59
2023/06/08 05:25:23;;;;;;;;;;;;;;;13.96;48.59;101416.81;7354108;19;20668;-60
2023/06/08 05:27:49;;;;;;;;;;;;;;;14.00;48.81;101418.47;7354198;19;19975;-60
2023/06/08 05:30:14;;;;;;;;;;;;;;;14.03;49.32;101419.22;7356660;19;19955;-60
2023/06/08 05:32:39;;;;;;;;;;;;;;;14.09;49.23;101423.50;7355004;19;19954;-58
2023/06/08 05:35:05;;;;;;;;;;;;;;;14.12;48.53;101418.13;7357181;19;19915;-59
2023/06/08 05:37:30;;;;;;;;;;;;;;;14.17;48.93;101426.75;7352211;19;19939;-60
2023/06/08 05:39:55;;;;;;;;;;;;;;;14.21;49.15;101423.16;7351948;19;19921;-60
2023/06/08 05:42:21;;;;;;;;;;;;;;;14.26;49.34;101423.91;7355002;19;19923;-60
2023/06/08 05:44:46;;;;;;;;;;;;;;;14.31;47.78;101428.16;7355776;19;19925;-59
2023/06/08 05:47:12;;;;;;;;;;;;;;;14.35;48.93;101414.06;7353643;19;20313;-60
2023/06/08 05:49:37;;;;;;;;;;;;;;;14.39;49.23;101424.41;7357532;19;19982;-60
2023/06/08 05:52:02;;;;;;;;;;;;;;;14.45;48.60;101426.03;7357037;19;19926;-60
2023/06/08 05:54:27;;;;;;;;;;;;;;;14.50;49.01;101426.81;7355379;19;19924;-60
2023/06/08 05:56:53;;;;;;;;;;;;;;;14.56;48.97;101428.41;7355834;19;20856;-60
2023/06/08 05:59:18;;;;;;;;;;;;;;;14.61;48.72;101426.50;7353010;19;20328;-60
2023/06/08 06:01:43;;;;;;;;;;;;;;;14.66;49.05;101436.00;7354285;19;19918;-60
2023/06/08 06:04:09;;;;;;;;;;;;;;;14.70;48.79;101427.13;7356681;19;20353;-60
2023/06/08 06:06:35;;;;;;;;;;;;;;;14.75;48.95;101419.97;7351927;19;19919;-59
2023/06/08 06:09:00;;;;;;;;;;;;;;;14.81;48.80;101421.56;7354028;19;19922;-60
2023/06/08 06:11:26;;;;;;;;;;;;;;;14.86;49.10;101426.69;7354599;19;19929;-59
2023/06/08 06:13:51;;;;;;;;;;;;;;;14.90;48.95;101429.19;7355191;19;19918;-60
2023/06/08 06:16:16;;;;;;;;;;;;;;;14.94;49.11;101430.78;7351776;19;19963;-60
2023/06/08 06:18:43;;;;;;;;;;;;;;;15.00;48.85;101427.13;7355067;19;19926;-59
2023/06/08 06:21:08;;;;;;;;;;;;;;;15.05;48.53;101427.84;7354752;19;20056;-60
2023/06/08 06:23:33;;;;;;;;;;;;;;;15.10;48.81;101425.94;7354240;19;21036;-59
2023/06/08 06:25:59;;;;;;;;;;;;;;;15.13;48.70;101427.63;7350555;19;19926;-60
2023/06/08 06:28:24;;;;;;;;;;;;;;;15.18;49.37;101433.63;7352082;19;20032;-60
2023/06/08 06:30:49;;;;;;;;;;;;;;;15.21;48.99;101434.41;7350799;19;19922;-60
2023/06/08 06:33:15;;;;;;;;;;;;;;;15.19;48.99;101430.94;7352359;19;19923;-60
2023/06/08 06:35:42;;;;;;;;;;;;;;;15.31;49.01;101427.94;7354226;19;19945;-57
2023/06/08 06:38:07;;;;;;;;;;;;;;;15.37;49.71;101428.66;7351705;19;20580;-60
2023/06/08 06:40:32;;;;;;;;;;;;;;;15.41;49.11;101430.25;7333051;19;19939;-60
2023/06/08 06:42:57;;;;;;;;;;;;;;;15.45;49.58;101427.50;7355244;19;20039;-60
2023/06/08 06:45:23;;;;;;;;;;;;;;;15.49;48.80;101428.28;7353785;19;19978;-57
2023/06/08 06:47:48;;;;;;;;;;;;;;;15.54;48.38;101434.25;7353239;19;19927;-57
2023/06/08 06:50:13;;;;;;;;;;;;;;;15.56;48.88;101432.41;7352613;19;19919;-58
2023/06/08 06:52:39;;;;;;;;;;;;;;;15.60;48.92;101426.16;7358198;19;19918;-57
2023/06/08 06:55:04;;;;;;;;;;;;;;;15.64;49.05;101442.75;7356512;19;20628;-57
2023/06/08 06:57:31;;;;;;;;;;;;;;;15.67;49.13;101433.00;7358116;19;19955;-57
2023/06/08 06:59:57;;;;;;;;;;;;;;;15.70;48.51;101427.59;7325105;19;20456;-58
2023/06/08 07:02:23;;;;;;;;;;;;;;;15.74;49.10;101439.78;7346518;19;20014;-58
2023/06/08 07:04:48;;;;;;;;;;;;;;;15.77;49.28;101444.94;7347777;19;19923;-58
2023/06/08 07:07:14;;;;;;;;;;;;;;;15.81;48.88;101446.59;7349993;19;20386;-57
2023/06/08 07:09:39;;;;;;;;;;;;;;;15.85;48.86;101452.59;7347612;19;19948;-58
2023/06/08 07:12:05;;;;;;;;;;;;;;;15.55;49.25;101385.94;7348653;19;19923;-57
2023/06/08 07:14:30;;;;;;;;;;;;;;;15.96;49.50;101454.88;7348765;19;19923;-57
2023/06/08 07:16:56;;;;;;;;;;;;;;;16.00;49.39;101451.22;7351924;19;20263;-57
2023/06/08 07:19:21;;;;;;;;;;;;;;;16.07;48.96;101452.75;7350433;19;19915;-57
2023/06/08 07:21:46;;;;;;;;;;;;;;;16.12;49.54;101450.84;7351078;19;20820;-57
2023/06/08 07:24:12;;;;;;;;;;;;;;;16.18;49.15;101455.88;7347346;19;19918;-58
2023/06/08 07:26:37;;;;;;;;;;;;;;;16.23;48.96;101448.69;7351678;19;19934;-57
2023/06/08 07:29:03;;;;;;;;;;;;;;;16.28;48.52;101457.31;7347356;19;20518;-58
2023/06/08 07:31:28;;;;;;;;;;;;;;;16.32;49.25;101458.91;7352379;19;20815;-57
2023/06/08 07:33:57;;;;;;;;;;;;;;;16.37;49.02;101456.09;7346148;19;19923;-57
2023/06/08 07:36:22;;;;;;;;;;;;;;;16.41;48.90;101460.34;7344977;19;20047;-57
2023/06/08 07:38:50;;;;;;;;;;;;;;;16.45;48.95;101463.75;7346842;19;20435;-57
2023/06/08 07:41:18;;;;;;;;;;;;;;;16.48;49.27;101468.94;7343205;19;19918;-57
2023/06/08 07:43:44;;;;;;;;;;;;;;;16.50;49.04;101464.47;7350131;19;20685;-57
2023/06/08 07:46:10;;;;;;;;;;;;;;;16.53;49.31;101461.72;7346933;19;19922;-58
2023/06/08 07:48:35;;;;;;;;;;;;;;;16.56;48.85;101461.59;7345784;19;20643;-57
2023/06/08 07:51:00;;;;;;;;;;;;;;;16.60;48.96;101468.50;7349292;19;19961;-58
2023/06/08 07:53:25;;;;;;;;;;;;;;;16.64;47.85;101454.28;7342962;19;19978;-57
2023/06/08 07:55:51;;;;;;;;;;;;;;;16.67;48.30;101459.44;7345036;19;20685;-58
2023/06/08 07:58:16;;;;;;;;;;;;;;;16.69;48.32;101452.34;7348147;19;19938;-58
2023/06/08 08:00:41;;;;;;;;;;;;;;;16.71;48.45;101455.81;7350741;19;20469;-58
2023/06/08 08:03:06;;;;;;;;;;;;;;;16.75;48.42;101457.41;7346389;19;19927;-57
2023/06/08 08:05:32;;;;;;;;;;;;;;;16.77;47.77;101445.03;7347328;19;19931;-57
2023/06/08 08:07:57;;;;;;;;;;;;;;;16.80;48.02;101444.94;7347234;19;19914;-57
2023/06/08 08:10:22;;;;;;;;;;;;;;;16.83;48.65;101444.81;7348860;19;20784;-58
2023/06/08 08:12:47;;;;;;;;;;;;;;;16.88;48.33;101462.25;7349058;19;20731;-57
2023/06/08 08:15:13;;;;;;;;;;;;;;;16.91;48.55;101441.03;7347098;19;20018;-57
2023/06/08 08:17:38;;;;;;;;;;;;;;;16.96;47.94;101449.63;7349692;19;19927;-58
2023/06/08 08:20:04;;;;;;;;;;;;;;;16.99;48.19;101436.34;7349193;19;19946;-57
2023/06/08 08:22:31;;;;;;;;;;;;;;;17.05;48.27;101438.75;7347437;19;19926;-57
2023/06/08 08:24:57;;;;;;;;;;;;;;;17.08;48.07;101438.59;7339510;19;20349;-57
2023/06/08 08:27:22;;;;;;;;;;;;;;;17.12;47.74;101456.06;7349192;19;19932;-57
2023/06/08 08:29:47;;;;;;;;;;;;;;;17.16;48.19;101454.16;7350248;19;20376;-58
2023/06/08 08:32:12;;;;;;;;;;;;;;;17.18;48.25;101447.91;7344799;19;19968;-57
2023/06/08 08:34:38;;;;;;;;;;;;;;;17.21;48.29;101450.44;7348398;19;20011;-57
2023/06/08 08:37:03;;;;;;;;;;;;;;;17.26;47.67;101453.75;7341125;19;19990;-57
2023/06/08 08:39:28;;;;;;;;;;;;;;;17.29;47.70;101451.00;7341598;19;19958;-58
2023/06/08 08:41:56;;;;;;;;;;;;;;;17.34;47.97;101456.97;7343394;19;20414;-57
2023/06/08 08:44:21;;;;;;;;;;;;;;;17.37;48.19;101450.69;7348566;19;19943;-57
2023/06/08 08:46:48;;;;;;;;;;;;;;;17.42;48.06;101458.44;7345330;19;19926;-58
2023/06/08 08:49:17;;;;;;;;;;;;;;;17.47;47.89;101451.19;7346244;19;19935;-57
2023/06/08 08:51:47;;;;;;;;;;;;;;;17.50;47.50;101448.44;7344353;19;19926;-58
2023/06/08 08:54:13;;;;;;;;;;;;;;;17.54;47.55;101452.69;7348912;19;20245;-58
2023/06/08 08:56:38;;;;;;;;;;;;;;;17.58;47.45;101459.53;7347037;19;19942;-58
2023/06/08 08:59:05;;;;;;;;;;;;;;;17.61;47.59;101454.16;7348200;19;19933;-57
2023/06/08 09:01:32;;;;;;;;;;;;;;;17.66;47.96;101452.19;7348563;19;19923;-57
2023/06/08 09:03:57;;;;;;;;;;;;;;;17.71;47.60;101450.22;7351598;19;20567;-57
2023/06/08 09:06:23;;;;;;;;;;;;;;;17.76;47.70;101448.28;7348697;19;19915;-57
2023/06/08 09:08:48;;;;;;;;;;;;;;;17.80;47.23;101455.16;7350956;19;19915;-57
2023/06/08 09:11:14;;;;;;;;;;;;;;;17.83;47.43;101455.03;7350356;19;19915;-58
2023/06/08 09:13:39;;;;;;;;;;;;;;;17.87;47.70;101450.50;7348931;19;19931;-57
2023/06/08 09:16:19;;;;;;;;;;;;;;;17.91;47.25;101448.59;7349874;19;19957;-57
2023/06/08 09:18:46;;;;;;;;;;;;;;;17.94;47.40;101449.28;7350876;19;19919;-57
2023/06/08 09:21:21;;;;;;;;;;;;;;;17.99;47.11;101449.13;7350001;19;20354;-57
2023/06/08 09:24:01;;;;;;;;;;;;;;;18.02;47.15;101456.94;7349743;19;19932;-58
2023/06/08 09:26:32;;;;;;;;;;;;;;;18.05;47.00;101451.53;7350355;19;19947;-57
2023/06/08 09:29:02;;;;;;;;;;;;;;;18.07;47.04;101449.66;7348830;19;19923;-58
2023/06/08 09:31:30;;;;;;;;;;;;;;;18.10;46.84;101441.63;7350129;19;20450;-57
2023/06/08 09:34:06;;;;;;;;;;;;;;;18.14;46.81;101437.91;7346605;19;19931;-57
2023/06/08 09:36:35;;;;;;;;;;;;;;;18.17;46.71;101437.78;7347235;19;19922;-57
2023/06/08 09:39:03;;;;;;;;;;;;;;;18.21;47.02;101444.66;7346279;19;19947;-58
2023/06/08 09:41:28;;;;;;;;;;;;;;;18.25;46.82;101440.97;7345469;19;19931;-58
2023/06/08 09:43:54;;;;;;;;;;;;;;;18.28;46.89;101426.75;7349219;19;20478;-57
2023/06/08 09:46:31;;;;;;;;;;;;;;;18.33;47.03;101430.03;7347695;19;19934;-57
2023/06/08 09:48:57;;;;;;;;;;;;;;;18.39;46.92;101441.19;7349624;19;19939;-58
2023/06/08 09:51:23;;;;;;;;;;;;;;;18.47;46.58;101434.75;7348076;19;21841;-57
2023/06/08 09:53:58;;;;;;;;;;;;;;;18.55;47.06;101428.19;7349643;19;20329;-58
2023/06/08 09:56:25;;;;;;;;;;;;;;;18.63;46.96;101425.19;7348672;19;19946;-57
2023/06/08 09:58:52;;;;;;;;;;;;;;;18.73;46.55;101430.97;7348828;19;19919;-58
2023/06/08 10:01:20;;;;;;;;;;;;;;;18.80;46.66;101427.97;7346486;19;19915;-57
2023/06/08 10:03:47;;;;;;;;;;;;;;;18.90;46.18;101431.91;7348724;19;20621;-57
2023/06/08 10:06:14;;;;;;;;;;;;;;;19.00;46.21;101431.47;7348462;19;20577;-58
2023/06/08 10:08:41;;;;;;;;;;;;;;;19.10;46.42;101424.84;7349247;19;19918;-58
2023/06/08 10:11:10;;;;;;;;;;;;;;;19.19;46.15;101427.06;7346809;19;20319;-58
2023/06/08 10:13:35;;;;;;;;;;;;;;;19.27;46.18;101416.97;7347234;19;19939;-58
2023/06/08 10:16:01;;;;;;;;;;;;;;;19.34;46.12;101418.38;7346198;19;19936;-57
2023/06/08 10:18:27;;;;;;;;;;;;;;;19.39;45.97;101413.72;7348610;19;20622;-58
2023/06/08 10:20:52;;;;;;;;;;;;;;;19.47;45.89;101407.22;7346512;19;20005;-58
2023/06/08 10:23:18;;;;;;;;;;;;;;;19.52;45.93;101406.06;7348555;19;19930;-58
2023/06/08 10:25:44;;;;;;;;;;;;;;;19.42;45.81;101376.50;7344854;19;19927;-58
2023/06/08 10:28:09;;;;;;;;;;;;;;;19.66;45.88;101400.09;7347998;19;19952;-58
2023/06/08 10:30:41;;;;;;;;;;;;;;;19.70;45.88;101399.88;7347395;19;19974;-58
2023/06/08 10:33:09;;;;;;;;;;;;;;;19.77;45.39;101405.75;7348009;19;20047;-57
2023/06/08 10:35:35;;;;;;;;;;;;;;;19.83;45.40;101393.97;7339243;19;19926;-58
2023/06/08 10:38:13;;;;;;;;;;;;;;;19.88;45.57;101398.09;7347889;19;19948;-58
2023/06/08 10:40:51;;;;;;;;;;;;;;;19.73;45.54;101356.47;7344128;19;19919;-58
2023/06/08 10:43:17;;;;;;;;;;;;;;;19.96;45.19;101393.25;7344436;19;20021;-57
2023/06/08 10:45:45;;;;;;;;;;;;;;;19.98;45.30;101395.00;7344822;19;20225;-58
2023/06/08 10:48:14;;;;;;;;;;;;;;;20.00;45.31;101395.75;7347583;19;19926;-58
2023/06/08 10:50:41;;;;;;;;;;;;;;;20.03;44.86;101399.13;7346805;19;20645;-58
2023/06/08 10:53:07;;;;;;;;;;;;;;;20.04;44.63;101397.31;7346273;19;19922;-58
2023/06/08 10:55:32;;;;;;;;;;;;;;;20.05;44.79;101393.72;7346027;19;19925;-57
2023/06/08 10:58:06;;;;;;;;;;;;;;;20.05;44.98;101389.28;7347535;19;19965;-58
2023/06/08 11:00:32;;;;;;;;;;;;;;;20.05;44.49;101388.44;7345153;19;19936;-58
2023/06/08 11:02:59;;;;;;;;;;;;;;;20.06;44.85;101395.44;7344889;19;20741;-58
2023/06/08 11:05:28;;;;;;;;;;;;;;;20.06;44.49;101395.44;7345052;19;19923;-58
2023/06/08 11:07:53;;;;;;;;;;;;;;;20.05;44.78;101389.28;7345378;19;20253;-57
2023/06/08 11:10:22;;;;;;;;;;;;;;;20.07;44.28;101391.84;7345699;19;19922;-57
2023/06/08 11:12:47;;;;;;;;;;;;;;;20.05;44.20;101388.44;7345667;19;20347;-58
2023/06/08 11:15:12;;;;;;;;;;;;;;;20.03;44.44;101383.22;7344658;19;21216;-57
2023/06/08 11:17:58;;;;;;;;;;;;;;;19.72;44.39;101336.22;7345715;19;20704;-58
2023/06/08 11:20:26;;;;;;;;;;;;;;;20.03;44.40;101385.00;7344538;19;19926;-58
2023/06/08 11:22:52;;;;;;;;;;;;;;;20.03;44.04;101390.31;7343267;19;19926;-57
2023/06/08 11:25:20;;;;;;;;;;;;;;;20.04;44.24;101387.56;7344363;19;19922;-57
2023/06/08 11:27:46;;;;;;;;;;;;;;;20.05;44.36;101383.13;7343909;19;20817;-58
2023/06/08 11:30:17;;;;;;;;;;;;;;;20.07;44.11;101386.53;7345757;19;19949;-57
2023/06/08 11:32:45;;;;;;;;;;;;;;;20.08;44.24;101380.31;7344531;19;20035;-58
2023/06/08 11:35:11;;;;;;;;;;;;;;;20.09;43.95;101379.38;7341233;19;19919;-57
2023/06/08 11:37:36;;;;;;;;;;;;;;;20.10;43.85;101384.59;7347586;19;19950;-57
2023/06/08 11:40:08;;;;;;;;;;;;;;;20.10;43.83;101375.78;7352249;19;20218;-58
2023/06/08 11:42:35;;;;;;;;;;;;;;;20.08;44.21;101383.84;7350856;19;19939;-58
2023/06/08 11:45:02;;;;;;;;;;;;;;;20.07;44.18;101376.81;7350771;19;19927;-57
2023/06/08 11:47:29;;;;;;;;;;;;;;;20.07;43.79;101373.28;7350128;19;19995;-57
2023/06/08 11:49:57;;;;;;;;;;;;;;;20.06;43.92;101368.94;7352244;19;19946;-58
2023/06/08 11:52:23;;;;;;;;;;;;;;;20.04;43.58;101362.84;7350644;19;20643;-58
2023/06/08 11:54:55;;;;;;;;;;;;;;;20.02;43.75;101364.72;7349730;19;19959;-58
2023/06/08 11:57:42;;;;;;;;;;;;;;;20.02;43.69;101372.66;7351265;19;19923;-58
2023/06/08 12:00:09;;;;;;;;;;;;;;;20.01;43.72;101365.66;7351524;19;20455;-58
2023/06/08 12:02:35;;;;;;;;;;;;;;;20.01;44.08;101373.59;7350367;19;19919;-57
2023/06/08 12:05:00;;;;;;;;;;;;;;;20.00;44.00;101369.25;7350775;19;19922;-57
2023/06/08 12:07:26;;;;;;;;;;;;;;;20.02;43.96;101362.06;7351428;19;19994;-57
2023/06/08 12:09:51;;;;;;;;;;;;;;;20.02;43.59;101367.38;7352410;19;20501;-57
2023/06/08 12:12:16;;;;;;;;;;;;;;;20.05;43.72;101364.56;7351646;19;19970;-57
2023/06/08 12:14:45;;;;;;;;;;;;;;;20.04;43.61;101354.91;7350286;19;19945;-57
2023/06/08 12:17:15;;;;;;;;;;;;;;;20.06;43.52;101366.28;7349568;19;20216;-57
2023/06/08 12:19:44;;;;;;;;;;;;;;;20.06;43.48;101371.56;7350397;19;20333;-59
2023/06/08 12:22:09;;;;;;;;;;;;;;;20.06;43.76;101363.63;7350552;19;19922;-57
2023/06/08 12:24:35;;;;;;;;;;;;;;;20.05;43.67;101359.25;7352011;19;20783;-57
2023/06/08 12:27:00;;;;;;;;;;;;;;;20.07;43.67;101354.72;7350590;19;19929;-57
2023/06/08 12:29:29;;;;;;;;;;;;;;;20.08;43.39;101354.66;7350542;19;24909;-58
2023/06/08 12:31:54;;;;;;;;;;;;;;;20.10;43.92;101354.56;7348972;19;19998;-58